sensor_id;sensor_type;location;lat;lon;timestamp;P1;durP1;ratioP1;P2;durP2;ratioP2
53391;SDS011;41667;51.922;8.850;2022-11-06T00:02:18;5.30;;;2.93;;
53391;SDS011;41667;51.922;8.850;2022-11-06T00:04:43;3.40;;;3.10;;
53391;SDS011;41667;51.922;8.850;2022-11-06T00:07:08;4.17;;;3.40;;
53391;SDS011;41667;51.922;8.850;2022-11-06T00:09:33;8.20;;;3.50;;
53391;SDS011;41667;51.922;8.850;2022-11-06T00:11:58;6.97;;;3.17;;
53391;SDS011;41667;51.922;8.850;2022-11-06T00:14:24;4.75;;;3.28;;
53391;SDS011;41667;51.922;8.850;2022-11-06T00:16:49;3.40;;;3.08;;
53391;SDS011;41667;51.922;8.850;2022-11-06T00:19:14;7.57;;;3.07;;
53391;SDS011;41667;51.922;8.850;2022-11-06T00:21:40;3.60;;;3.22;;
53391;SDS011;41667;51.922;8.850;2022-11-06T00:24:05;5.13;;;3.20;;
53391;SDS011;41667;51.922;8.850;2022-11-06T00:26:32;6.03;;;3.30;;
53391;SDS011;41667;51.922;8.850;2022-11-06T00:28:59;6.13;;;3.03;;
53391;SDS011;41667;51.922;8.850;2022-11-06T00:31:26;4.32;;;3.03;;
53391;SDS011;41667;51.922;8.850;2022-11-06T00:33:52;5.43;;;3.05;;
53391;SDS011;41667;51.922;8.850;2022-11-06T00:36:19;5.60;;;2.85;;
53391;SDS011;41667;51.922;8.850;2022-11-06T00:38:44;5.30;;;3.00;;
53391;SDS011;41667;51.922;8.850;2022-11-06T00:41:11;6.32;;;3.38;;
53391;SDS011;41667;51.922;8.850;2022-11-06T00:43:36;4.18;;;3.40;;
53391;SDS011;41667;51.922;8.850;2022-11-06T00:46:02;9.30;;;3.60;;
53391;SDS011;41667;51.922;8.850;2022-11-06T00:48:28;6.10;;;3.03;;
53391;SDS011;41667;51.922;8.850;2022-11-06T00:50:53;3.43;;;2.93;;
53391;SDS011;41667;51.922;8.850;2022-11-06T00:53:18;3.60;;;2.80;;
53391;SDS011;41667;51.922;8.850;2022-11-06T00:55:43;7.47;;;3.37;;
53391;SDS011;41667;51.922;8.850;2022-11-06T00:58:08;3.87;;;3.10;;
53391;SDS011;41667;51.922;8.850;2022-11-06T01:00:34;4.30;;;3.80;;
53391;SDS011;41667;51.922;8.850;2022-11-06T01:02:59;3.10;;;2.33;;
53391;SDS011;41667;51.922;8.850;2022-11-06T01:05:25;7.53;;;3.20;;
53391;SDS011;41667;51.922;8.850;2022-11-06T01:07:50;5.72;;;3.00;;
53391;SDS011;41667;51.922;8.850;2022-11-06T01:10:15;3.47;;;2.77;;
53391;SDS011;41667;51.922;8.850;2022-11-06T01:12:40;4.67;;;3.37;;
53391;SDS011;41667;51.922;8.850;2022-11-06T01:15:06;5.13;;;3.55;;
53391;SDS011;41667;51.922;8.850;2022-11-06T01:17:31;5.30;;;2.78;;
53391;SDS011;41667;51.922;8.850;2022-11-06T01:19:58;5.82;;;3.70;;
53391;SDS011;41667;51.922;8.850;2022-11-06T01:22:23;3.53;;;2.97;;
53391;SDS011;41667;51.922;8.850;2022-11-06T01:24:48;5.78;;;2.97;;
53391;SDS011;41667;51.922;8.850;2022-11-06T01:27:13;4.57;;;3.15;;
53391;SDS011;41667;51.922;8.850;2022-11-06T01:29:39;6.50;;;3.33;;
53391;SDS011;41667;51.922;8.850;2022-11-06T01:32:05;3.95;;;2.45;;
53391;SDS011;41667;51.922;8.850;2022-11-06T01:34:30;3.38;;;2.92;;
53391;SDS011;41667;51.922;8.850;2022-11-06T01:36:55;3.40;;;2.80;;
53391;SDS011;41667;51.922;8.850;2022-11-06T01:39:21;10.73;;;3.60;;
53391;SDS011;41667;51.922;8.850;2022-11-06T01:41:47;4.90;;;3.37;;
53391;SDS011;41667;51.922;8.850;2022-11-06T01:46:56;4.28;;;3.20;;
53391;SDS011;41667;51.922;8.850;2022-11-06T01:49:22;3.83;;;2.85;;
53391;SDS011;41667;51.922;8.850;2022-11-06T01:51:48;3.97;;;3.53;;
53391;SDS011;41667;51.922;8.850;2022-11-06T01:54:14;8.85;;;3.58;;
53391;SDS011;41667;51.922;8.850;2022-11-06T01:56:39;7.30;;;3.38;;
53391;SDS011;41667;51.922;8.850;2022-11-06T01:59:06;6.55;;;2.65;;
53391;SDS011;41667;51.922;8.850;2022-11-06T02:01:33;7.47;;;3.55;;
53391;SDS011;41667;51.922;8.850;2022-11-06T02:04:01;3.50;;;3.10;;
53391;SDS011;41667;51.922;8.850;2022-11-06T02:06:29;6.22;;;3.78;;
53391;SDS011;41667;51.922;8.850;2022-11-06T02:08:54;3.97;;;3.25;;
53391;SDS011;41667;51.922;8.850;2022-11-06T02:11:19;5.83;;;3.40;;
53391;SDS011;41667;51.922;8.850;2022-11-06T02:13:57;3.43;;;2.40;;
53391;SDS011;41667;51.922;8.850;2022-11-06T02:21:34;6.57;;;3.50;;
53391;SDS011;41667;51.922;8.850;2022-11-06T02:24:10;3.30;;;2.90;;
53391;SDS011;41667;51.922;8.850;2022-11-06T02:29:19;4.55;;;3.05;;
53391;SDS011;41667;51.922;8.850;2022-11-06T02:31:45;5.00;;;3.08;;
53391;SDS011;41667;51.922;8.850;2022-11-06T02:34:12;5.10;;;2.70;;
53391;SDS011;41667;51.922;8.850;2022-11-06T02:36:42;11.85;;;3.60;;
53391;SDS011;41667;51.922;8.850;2022-11-06T02:39:09;5.57;;;2.97;;
53391;SDS011;41667;51.922;8.850;2022-11-06T02:41:37;5.35;;;3.22;;
53391;SDS011;41667;51.922;8.850;2022-11-06T02:44:05;5.40;;;2.88;;
53391;SDS011;41667;51.922;8.850;2022-11-06T02:46:33;4.82;;;2.72;;
53391;SDS011;41667;51.922;8.850;2022-11-06T02:49:01;2.45;;;2.25;;
53391;SDS011;41667;51.922;8.850;2022-11-06T02:51:29;4.10;;;2.17;;
53391;SDS011;41667;51.922;8.850;2022-11-06T02:53:57;3.20;;;2.67;;
53391;SDS011;41667;51.922;8.850;2022-11-06T02:56:24;4.60;;;3.25;;
53391;SDS011;41667;51.922;8.850;2022-11-06T02:58:54;6.18;;;2.50;;
53391;SDS011;41667;51.922;8.850;2022-11-06T03:01:23;4.50;;;3.20;;
53391;SDS011;41667;51.922;8.850;2022-11-06T03:03:51;8.70;;;2.97;;
53391;SDS011;41667;51.922;8.850;2022-11-06T03:06:37;5.75;;;3.13;;
53391;SDS011;41667;51.922;8.850;2022-11-06T03:09:04;4.68;;;2.92;;
53391;SDS011;41667;51.922;8.850;2022-11-06T03:11:31;3.08;;;2.55;;
53391;SDS011;41667;51.922;8.850;2022-11-06T03:19:29;3.30;;;2.65;;
53391;SDS011;41667;51.922;8.850;2022-11-06T03:22:10;3.20;;;2.50;;
53391;SDS011;41667;51.922;8.850;2022-11-06T03:24:45;6.65;;;2.60;;
53391;SDS011;41667;51.922;8.850;2022-11-06T03:27:24;3.95;;;2.28;;
53391;SDS011;41667;51.922;8.850;2022-11-06T03:30:03;3.67;;;2.00;;
53391;SDS011;41667;51.922;8.850;2022-11-06T03:37:39;3.15;;;1.95;;
53391;SDS011;41667;51.922;8.850;2022-11-06T03:40:07;7.47;;;2.38;;
53391;SDS011;41667;51.922;8.850;2022-11-06T03:42:33;6.68;;;2.53;;
53391;SDS011;41667;51.922;8.850;2022-11-06T03:45:01;3.45;;;2.15;;
53391;SDS011;41667;51.922;8.850;2022-11-06T03:50:29;8.70;;;2.78;;
53391;SDS011;41667;51.922;8.850;2022-11-06T03:55:22;3.53;;;2.83;;
53391;SDS011;41667;51.922;8.850;2022-11-06T03:57:56;4.82;;;2.65;;
53391;SDS011;41667;51.922;8.850;2022-11-06T04:00:23;3.28;;;2.13;;
53391;SDS011;41667;51.922;8.850;2022-11-06T04:02:49;2.97;;;2.10;;
53391;SDS011;41667;51.922;8.850;2022-11-06T04:05:21;5.43;;;2.85;;
53391;SDS011;41667;51.922;8.850;2022-11-06T04:07:49;6.78;;;2.28;;
53391;SDS011;41667;51.922;8.850;2022-11-06T04:10:35;2.72;;;2.00;;
53391;SDS011;41667;51.922;8.850;2022-11-06T04:13:21;6.25;;;2.55;;
53391;SDS011;41667;51.922;8.850;2022-11-06T04:16:06;6.13;;;2.80;;
53391;SDS011;41667;51.922;8.850;2022-11-06T04:18:32;2.90;;;2.60;;
53391;SDS011;41667;51.922;8.850;2022-11-06T04:29:37;7.55;;;2.88;;
53391;SDS011;41667;51.922;8.850;2022-11-06T04:32:10;6.55;;;2.45;;
53391;SDS011;41667;51.922;8.850;2022-11-06T04:34:53;3.60;;;2.40;;
53391;SDS011;41667;51.922;8.850;2022-11-06T04:37:24;4.18;;;2.65;;
53391;SDS011;41667;51.922;8.850;2022-11-06T04:40:05;4.57;;;2.50;;
53391;SDS011;41667;51.922;8.850;2022-11-06T04:42:39;4.65;;;2.72;;
53391;SDS011;41667;51.922;8.850;2022-11-06T04:45:07;7.30;;;3.15;;
53391;SDS011;41667;51.922;8.850;2022-11-06T04:47:35;4.35;;;3.75;;
53391;SDS011;41667;51.922;8.850;2022-11-06T04:50:01;3.85;;;3.00;;
53391;SDS011;41667;51.922;8.850;2022-11-06T04:52:27;5.18;;;3.40;;
53391;SDS011;41667;51.922;8.850;2022-11-06T04:54:53;3.00;;;2.65;;
53391;SDS011;41667;51.922;8.850;2022-11-06T04:57:19;3.00;;;2.72;;
53391;SDS011;41667;51.922;8.850;2022-11-06T04:59:44;33.63;;;3.90;;
53391;SDS011;41667;51.922;8.850;2022-11-06T05:02:09;8.10;;;3.47;;
53391;SDS011;41667;51.922;8.850;2022-11-06T05:04:34;7.35;;;3.63;;
53391;SDS011;41667;51.922;8.850;2022-11-06T05:07:00;6.23;;;3.27;;
53391;SDS011;41667;51.922;8.850;2022-11-06T05:09:25;6.05;;;4.47;;
53391;SDS011;41667;51.922;8.850;2022-11-06T05:11:50;9.23;;;3.67;;
53391;SDS011;41667;51.922;8.850;2022-11-06T05:14:17;6.28;;;3.33;;
53391;SDS011;41667;51.922;8.850;2022-11-06T05:16:43;5.88;;;3.83;;
53391;SDS011;41667;51.922;8.850;2022-11-06T05:19:08;5.20;;;3.40;;
53391;SDS011;41667;51.922;8.850;2022-11-06T05:21:33;5.13;;;3.47;;
53391;SDS011;41667;51.922;8.850;2022-11-06T05:24:17;4.75;;;3.38;;
53391;SDS011;41667;51.922;8.850;2022-11-06T05:26:42;10.10;;;3.33;;
53391;SDS011;41667;51.922;8.850;2022-11-06T05:29:07;4.23;;;2.73;;
53391;SDS011;41667;51.922;8.850;2022-11-06T05:31:33;8.33;;;2.97;;
53391;SDS011;41667;51.922;8.850;2022-11-06T05:33:58;5.93;;;3.33;;
53391;SDS011;41667;51.922;8.850;2022-11-06T05:36:23;6.20;;;3.27;;
53391;SDS011;41667;51.922;8.850;2022-11-06T05:38:48;5.00;;;3.22;;
53391;SDS011;41667;51.922;8.850;2022-11-06T05:41:13;4.77;;;2.83;;
53391;SDS011;41667;51.922;8.850;2022-11-06T05:43:39;7.90;;;3.30;;
53391;SDS011;41667;51.922;8.850;2022-11-06T05:46:04;3.40;;;2.50;;
53391;SDS011;41667;51.922;8.850;2022-11-06T05:48:29;6.83;;;3.00;;
53391;SDS011;41667;51.922;8.850;2022-11-06T05:51:04;5.13;;;3.13;;
53391;SDS011;41667;51.922;8.850;2022-11-06T05:53:30;3.47;;;2.50;;
53391;SDS011;41667;51.922;8.850;2022-11-06T05:55:55;8.18;;;3.90;;
53391;SDS011;41667;51.922;8.850;2022-11-06T05:58:20;5.22;;;2.90;;
53391;SDS011;41667;51.922;8.850;2022-11-06T06:00:46;6.63;;;3.80;;
53391;SDS011;41667;51.922;8.850;2022-11-06T06:03:11;5.50;;;3.75;;
53391;SDS011;41667;51.922;8.850;2022-11-06T06:05:36;5.03;;;3.50;;
53391;SDS011;41667;51.922;8.850;2022-11-06T06:08:03;6.32;;;4.00;;
53391;SDS011;41667;51.922;8.850;2022-11-06T06:10:28;4.43;;;3.40;;
53391;SDS011;41667;51.922;8.850;2022-11-06T06:12:53;4.83;;;3.47;;
53391;SDS011;41667;51.922;8.850;2022-11-06T06:15:18;8.03;;;3.60;;
53391;SDS011;41667;51.922;8.850;2022-11-06T06:17:43;7.07;;;3.73;;
53391;SDS011;41667;51.922;8.850;2022-11-06T06:20:10;5.30;;;3.97;;
53391;SDS011;41667;51.922;8.850;2022-11-06T06:22:35;8.07;;;4.15;;
53391;SDS011;41667;51.922;8.850;2022-11-06T06:25:01;7.63;;;4.47;;
53391;SDS011;41667;51.922;8.850;2022-11-06T06:27:26;6.40;;;3.80;;
53391;SDS011;41667;51.922;8.850;2022-11-06T06:29:51;6.10;;;3.80;;
53391;SDS011;41667;51.922;8.850;2022-11-06T06:32:16;6.25;;;4.45;;
53391;SDS011;41667;51.922;8.850;2022-11-06T06:34:42;4.37;;;3.97;;
53391;SDS011;41667;51.922;8.850;2022-11-06T06:37:07;6.70;;;4.27;;
53391;SDS011;41667;51.922;8.850;2022-11-06T06:39:32;6.75;;;3.72;;
53391;SDS011;41667;51.922;8.850;2022-11-06T06:41:57;9.33;;;4.63;;
53391;SDS011;41667;51.922;8.850;2022-11-06T06:44:22;10.25;;;4.85;;
53391;SDS011;41667;51.922;8.850;2022-11-06T06:46:48;8.77;;;5.10;;
53391;SDS011;41667;51.922;8.850;2022-11-06T06:49:13;5.70;;;3.97;;
53391;SDS011;41667;51.922;8.850;2022-11-06T06:51:38;5.68;;;4.93;;
53391;SDS011;41667;51.922;8.850;2022-11-06T06:54:03;7.67;;;5.80;;
53391;SDS011;41667;51.922;8.850;2022-11-06T06:56:29;8.27;;;4.70;;
53391;SDS011;41667;51.922;8.850;2022-11-06T06:58:54;13.73;;;5.95;;
53391;SDS011;41667;51.922;8.850;2022-11-06T07:01:20;8.15;;;5.20;;
53391;SDS011;41667;51.922;8.850;2022-11-06T07:03:45;9.10;;;5.20;;
53391;SDS011;41667;51.922;8.850;2022-11-06T07:06:10;13.07;;;5.70;;
53391;SDS011;41667;51.922;8.850;2022-11-06T07:08:35;11.68;;;5.38;;
53391;SDS011;41667;51.922;8.850;2022-11-06T07:11:02;8.88;;;5.10;;
53391;SDS011;41667;51.922;8.850;2022-11-06T07:13:28;10.48;;;5.38;;
53391;SDS011;41667;51.922;8.850;2022-11-06T07:16:03;7.15;;;5.03;;
53391;SDS011;41667;51.922;8.850;2022-11-06T07:18:28;9.43;;;5.25;;
53391;SDS011;41667;51.922;8.850;2022-11-06T07:20:54;7.40;;;5.27;;
53391;SDS011;41667;51.922;8.850;2022-11-06T07:23:19;15.15;;;5.93;;
53391;SDS011;41667;51.922;8.850;2022-11-06T07:25:50;7.38;;;5.07;;
53391;SDS011;41667;51.922;8.850;2022-11-06T07:28:15;6.55;;;4.55;;
53391;SDS011;41667;51.922;8.850;2022-11-06T07:30:40;8.60;;;5.00;;
53391;SDS011;41667;51.922;8.850;2022-11-06T07:33:05;7.07;;;4.90;;
53391;SDS011;41667;51.922;8.850;2022-11-06T07:35:31;8.15;;;4.97;;
53391;SDS011;41667;51.922;8.850;2022-11-06T07:37:57;8.57;;;4.68;;
53391;SDS011;41667;51.922;8.850;2022-11-06T07:40:22;7.23;;;6.00;;
53391;SDS011;41667;51.922;8.850;2022-11-06T07:42:47;5.35;;;4.78;;
53391;SDS011;41667;51.922;8.850;2022-11-06T07:45:12;7.53;;;5.33;;
53391;SDS011;41667;51.922;8.850;2022-11-06T07:47:37;7.43;;;4.00;;
53391;SDS011;41667;51.922;8.850;2022-11-06T07:50:03;6.90;;;4.22;;
53391;SDS011;41667;51.922;8.850;2022-11-06T07:52:28;7.25;;;4.43;;
53391;SDS011;41667;51.922;8.850;2022-11-06T07:54:54;5.00;;;3.92;;
53391;SDS011;41667;51.922;8.850;2022-11-06T07:57:19;6.22;;;4.30;;
53391;SDS011;41667;51.922;8.850;2022-11-06T07:59:44;5.73;;;4.00;;
53391;SDS011;41667;51.922;8.850;2022-11-06T08:02:10;7.23;;;3.57;;
53391;SDS011;41667;51.922;8.850;2022-11-06T08:04:36;6.75;;;3.58;;
53391;SDS011;41667;51.922;8.850;2022-11-06T08:07:01;10.63;;;3.90;;
53391;SDS011;41667;51.922;8.850;2022-11-06T08:09:27;4.77;;;4.00;;
53391;SDS011;41667;51.922;8.850;2022-11-06T08:11:52;8.50;;;4.00;;
53391;SDS011;41667;51.922;8.850;2022-11-06T08:14:17;7.47;;;3.83;;
53391;SDS011;41667;51.922;8.850;2022-11-06T08:16:42;4.53;;;3.57;;
53391;SDS011;41667;51.922;8.850;2022-11-06T08:19:07;7.73;;;3.70;;
53391;SDS011;41667;51.922;8.850;2022-11-06T08:21:32;3.50;;;3.13;;
53391;SDS011;41667;51.922;8.850;2022-11-06T08:23:58;5.50;;;3.47;;
53391;SDS011;41667;51.922;8.850;2022-11-06T08:26:23;6.22;;;2.97;;
53391;SDS011;41667;51.922;8.850;2022-11-06T08:28:48;6.18;;;3.97;;
53391;SDS011;41667;51.922;8.850;2022-11-06T08:31:14;5.13;;;3.33;;
53391;SDS011;41667;51.922;8.850;2022-11-06T08:33:39;3.37;;;2.73;;
53391;SDS011;41667;51.922;8.850;2022-11-06T08:36:04;4.53;;;3.03;;
53391;SDS011;41667;51.922;8.850;2022-11-06T08:38:30;5.45;;;3.00;;
53391;SDS011;41667;51.922;8.850;2022-11-06T08:40:55;3.63;;;2.80;;
53391;SDS011;41667;51.922;8.850;2022-11-06T08:43:20;5.37;;;3.07;;
53391;SDS011;41667;51.922;8.850;2022-11-06T08:45:50;3.50;;;2.20;;
53391;SDS011;41667;51.922;8.850;2022-11-06T08:48:15;7.10;;;2.65;;
53391;SDS011;41667;51.922;8.850;2022-11-06T08:50:40;5.30;;;3.03;;
53391;SDS011;41667;51.922;8.850;2022-11-06T08:53:06;4.22;;;2.53;;
53391;SDS011;41667;51.922;8.850;2022-11-06T08:55:36;2.88;;;2.55;;
53391;SDS011;41667;51.922;8.850;2022-11-06T08:58:01;3.03;;;2.17;;
53391;SDS011;41667;51.922;8.850;2022-11-06T09:00:27;3.03;;;2.15;;
53391;SDS011;41667;51.922;8.850;2022-11-06T09:03:02;7.10;;;2.30;;
53391;SDS011;41667;51.922;8.850;2022-11-06T09:05:27;7.35;;;3.40;;
53391;SDS011;41667;51.922;8.850;2022-11-06T09:07:54;3.30;;;2.05;;
53391;SDS011;41667;51.922;8.850;2022-11-06T09:10:19;4.25;;;2.17;;
53391;SDS011;41667;51.922;8.850;2022-11-06T09:12:44;2.55;;;2.35;;
53391;SDS011;41667;51.922;8.850;2022-11-06T09:15:09;2.87;;;2.13;;
53391;SDS011;41667;51.922;8.850;2022-11-06T09:17:41;3.53;;;2.25;;
53391;SDS011;41667;51.922;8.850;2022-11-06T09:20:07;4.90;;;2.08;;
53391;SDS011;41667;51.922;8.850;2022-11-06T09:22:32;4.32;;;2.47;;
53391;SDS011;41667;51.922;8.850;2022-11-06T09:24:57;4.90;;;2.10;;
53391;SDS011;41667;51.922;8.850;2022-11-06T09:27:22;2.60;;;2.00;;
53391;SDS011;41667;51.922;8.850;2022-11-06T09:29:49;5.72;;;2.22;;
53391;SDS011;41667;51.922;8.850;2022-11-06T09:32:14;3.33;;;1.60;;
53391;SDS011;41667;51.922;8.850;2022-11-06T09:34:39;3.88;;;1.92;;
53391;SDS011;41667;51.922;8.850;2022-11-06T09:37:04;5.07;;;1.97;;
53391;SDS011;41667;51.922;8.850;2022-11-06T09:39:30;3.97;;;2.30;;
53391;SDS011;41667;51.922;8.850;2022-11-06T09:46:48;3.10;;;2.15;;
53391;SDS011;41667;51.922;8.850;2022-11-06T09:54:33;4.07;;;2.10;;
53391;SDS011;41667;51.922;8.850;2022-11-06T09:57:01;3.72;;;2.03;;
53391;SDS011;41667;51.922;8.850;2022-11-06T09:59:28;2.45;;;2.00;;
53391;SDS011;41667;51.922;8.850;2022-11-06T10:01:56;5.82;;;1.98;;
53391;SDS011;41667;51.922;8.850;2022-11-06T10:04:32;1.92;;;1.80;;
53391;SDS011;41667;51.922;8.850;2022-11-06T10:07:00;3.03;;;1.95;;
53391;SDS011;41667;51.922;8.850;2022-11-06T10:09:25;3.42;;;2.03;;
53391;SDS011;41667;51.922;8.850;2022-11-06T10:11:57;1.67;;;1.58;;
53391;SDS011;41667;51.922;8.850;2022-11-06T10:14:33;2.35;;;1.65;;
53391;SDS011;41667;51.922;8.850;2022-11-06T10:17:08;10.57;;;2.75;;
53391;SDS011;41667;51.922;8.850;2022-11-06T10:19:39;4.85;;;1.65;;
53391;SDS011;41667;51.922;8.850;2022-11-06T10:27:01;3.58;;;1.95;;
53391;SDS011;41667;51.922;8.850;2022-11-06T10:35:22;3.15;;;1.60;;
53391;SDS011;41667;51.922;8.850;2022-11-06T10:37:43;3.10;;;1.45;;
53391;SDS011;41667;51.922;8.850;2022-11-06T10:40:15;1.60;;;1.50;;
53391;SDS011;41667;51.922;8.850;2022-11-06T10:42:41;1.77;;;1.52;;
53391;SDS011;41667;51.922;8.850;2022-11-06T10:45:16;2.50;;;2.25;;
53391;SDS011;41667;51.922;8.850;2022-11-06T10:47:42;4.38;;;2.00;;
53391;SDS011;41667;51.922;8.850;2022-11-06T10:50:12;1.95;;;1.58;;
53391;SDS011;41667;51.922;8.850;2022-11-06T10:55:14;2.88;;;1.38;;
53391;SDS011;41667;51.922;8.850;2022-11-06T10:57:51;3.38;;;1.80;;
53391;SDS011;41667;51.922;8.850;2022-11-06T11:00:19;2.95;;;1.70;;
53391;SDS011;41667;51.922;8.850;2022-11-06T11:02:51;2.40;;;2.20;;
53391;SDS011;41667;51.922;8.850;2022-11-06T11:05:21;3.72;;;1.60;;
53391;SDS011;41667;51.922;8.850;2022-11-06T11:07:47;2.90;;;1.60;;
53391;SDS011;41667;51.922;8.850;2022-11-06T11:10:23;3.28;;;2.03;;
53391;SDS011;41667;51.922;8.850;2022-11-06T11:12:50;3.28;;;1.60;;
53391;SDS011;41667;51.922;8.850;2022-11-06T11:15:17;1.88;;;1.60;;
53391;SDS011;41667;51.922;8.850;2022-11-06T11:17:44;1.73;;;1.63;;
53391;SDS011;41667;51.922;8.850;2022-11-06T11:20:29;4.78;;;1.83;;
53391;SDS011;41667;51.922;8.850;2022-11-06T11:25:38;2.45;;;1.27;;
53391;SDS011;41667;51.922;8.850;2022-11-06T11:28:05;1.90;;;1.80;;
53391;SDS011;41667;51.922;8.850;2022-11-06T11:30:30;1.60;;;1.50;;
53391;SDS011;41667;51.922;8.850;2022-11-06T11:32:55;4.00;;;1.55;;
53391;SDS011;41667;51.922;8.850;2022-11-06T11:35:25;1.70;;;1.60;;
53391;SDS011;41667;51.922;8.850;2022-11-06T11:37:51;2.42;;;1.83;;
53391;SDS011;41667;51.922;8.850;2022-11-06T11:40:18;6.32;;;2.00;;
53391;SDS011;41667;51.922;8.850;2022-11-06T11:42:43;4.90;;;1.80;;
53391;SDS011;41667;51.922;8.850;2022-11-06T11:47:37;4.35;;;2.00;;
53391;SDS011;41667;51.922;8.850;2022-11-06T11:52:40;2.05;;;1.33;;
53391;SDS011;41667;51.922;8.850;2022-11-06T11:55:12;4.60;;;2.10;;
53391;SDS011;41667;51.922;8.850;2022-11-06T11:57:38;3.35;;;2.40;;
53391;SDS011;41667;51.922;8.850;2022-11-06T12:00:12;5.43;;;2.20;;
53391;SDS011;41667;51.922;8.850;2022-11-06T12:05:11;3.15;;;1.80;;
53391;SDS011;41667;51.922;8.850;2022-11-06T12:07:39;4.90;;;1.90;;
53391;SDS011;41667;51.922;8.850;2022-11-06T12:12:46;2.95;;;1.60;;
53391;SDS011;41667;51.922;8.850;2022-11-06T12:17:43;3.15;;;1.63;;
53391;SDS011;41667;51.922;8.850;2022-11-06T12:20:13;3.70;;;1.95;;
53391;SDS011;41667;51.922;8.850;2022-11-06T12:22:41;4.32;;;1.92;;
53391;SDS011;41667;51.922;8.850;2022-11-06T12:27:40;1.92;;;1.65;;
53391;SDS011;41667;51.922;8.850;2022-11-06T12:30:24;3.67;;;1.90;;
53391;SDS011;41667;51.922;8.850;2022-11-06T12:35:20;4.70;;;2.10;;
53391;SDS011;41667;51.922;8.850;2022-11-06T12:40:34;3.88;;;2.05;;
53391;SDS011;41667;51.922;8.850;2022-11-06T12:45:35;3.13;;;1.92;;
53391;SDS011;41667;51.922;8.850;2022-11-06T12:48:48;3.80;;;2.40;;
53391;SDS011;41667;51.922;8.850;2022-11-06T12:53:39;7.22;;;2.40;;
53391;SDS011;41667;51.922;8.850;2022-11-06T12:56:22;2.30;;;1.90;;
53391;SDS011;41667;51.922;8.850;2022-11-06T12:58:52;3.65;;;2.35;;
53391;SDS011;41667;51.922;8.850;2022-11-06T13:01:26;1.85;;;1.73;;
53391;SDS011;41667;51.922;8.850;2022-11-06T13:04:00;4.68;;;1.88;;
53391;SDS011;41667;51.922;8.850;2022-11-06T13:06:33;3.65;;;1.85;;
53391;SDS011;41667;51.922;8.850;2022-11-06T13:09:03;3.05;;;1.75;;
53391;SDS011;41667;51.922;8.850;2022-11-06T13:11:36;2.73;;;2.00;;
53391;SDS011;41667;51.922;8.850;2022-11-06T13:14:19;5.45;;;1.90;;
53391;SDS011;41667;51.922;8.850;2022-11-06T13:24:27;6.60;;;2.10;;
53391;SDS011;41667;51.922;8.850;2022-11-06T13:26:59;8.18;;;2.00;;
53391;SDS011;41667;51.922;8.850;2022-11-06T13:29:27;5.78;;;3.65;;
53391;SDS011;41667;51.922;8.850;2022-11-06T13:31:55;3.53;;;2.30;;
53391;SDS011;41667;51.922;8.850;2022-11-06T13:34:26;5.60;;;2.05;;
53391;SDS011;41667;51.922;8.850;2022-11-06T13:36:53;1.98;;;1.63;;
53391;SDS011;41667;51.922;8.850;2022-11-06T13:39:40;3.33;;;1.83;;
53391;SDS011;41667;51.922;8.850;2022-11-06T13:42:04;3.55;;;1.98;;
53391;SDS011;41667;51.922;8.850;2022-11-06T13:44:31;2.60;;;1.40;;
53391;SDS011;41667;51.922;8.850;2022-11-06T13:47:19;4.97;;;1.50;;
53391;SDS011;41667;51.922;8.850;2022-11-06T13:49:53;4.10;;;1.80;;
53391;SDS011;41667;51.922;8.850;2022-11-06T13:52:24;3.85;;;1.40;;
53391;SDS011;41667;51.922;8.850;2022-11-06T14:00:24;4.22;;;2.20;;
53391;SDS011;41667;51.922;8.850;2022-11-06T14:05:46;2.50;;;1.65;;
53391;SDS011;41667;51.922;8.850;2022-11-06T14:08:15;1.73;;;1.38;;
53391;SDS011;41667;51.922;8.850;2022-11-06T14:10:46;3.72;;;1.67;;
53391;SDS011;41667;51.922;8.850;2022-11-06T14:13:12;3.47;;;1.60;;
53391;SDS011;41667;51.922;8.850;2022-11-06T14:15:39;3.22;;;1.90;;
53391;SDS011;41667;51.922;8.850;2022-11-06T14:18:10;3.40;;;1.45;;
53391;SDS011;41667;51.922;8.850;2022-11-06T14:20:37;2.03;;;1.80;;
53391;SDS011;41667;51.922;8.850;2022-11-06T14:26:01;2.33;;;1.67;;
53391;SDS011;41667;51.922;8.850;2022-11-06T14:28:34;2.92;;;1.83;;
53391;SDS011;41667;51.922;8.850;2022-11-06T14:31:00;1.55;;;1.45;;
53391;SDS011;41667;51.922;8.850;2022-11-06T14:36:12;2.55;;;1.35;;
53391;SDS011;41667;51.922;8.850;2022-11-06T14:38:38;6.70;;;1.55;;
53391;SDS011;41667;51.922;8.850;2022-11-06T14:44:03;6.28;;;1.85;;
53391;SDS011;41667;51.922;8.850;2022-11-06T14:46:29;2.92;;;1.77;;
53391;SDS011;41667;51.922;8.850;2022-11-06T14:48:55;2.47;;;1.60;;
53391;SDS011;41667;51.922;8.850;2022-11-06T14:51:30;6.45;;;1.45;;
53391;SDS011;41667;51.922;8.850;2022-11-06T14:53:59;2.10;;;1.00;;
53391;SDS011;41667;51.922;8.850;2022-11-06T14:56:27;1.02;;;0.98;;
53391;SDS011;41667;51.922;8.850;2022-11-06T14:58:53;2.22;;;0.93;;
53391;SDS011;41667;51.922;8.850;2022-11-06T15:01:26;2.35;;;1.13;;
53391;SDS011;41667;51.922;8.850;2022-11-06T15:03:54;2.47;;;1.48;;
53391;SDS011;41667;51.922;8.850;2022-11-06T15:09:56;5.18;;;1.50;;
53391;SDS011;41667;51.922;8.850;2022-11-06T15:11:56;4.57;;;1.30;;
53391;SDS011;41667;51.922;8.850;2022-11-06T15:16:48;2.15;;;1.63;;
53391;SDS011;41667;51.922;8.850;2022-11-06T15:19:19;4.43;;;1.58;;
53391;SDS011;41667;51.922;8.850;2022-11-06T15:21:47;1.20;;;1.20;;
53391;SDS011;41667;51.922;8.850;2022-11-06T15:24:14;1.70;;;1.40;;
53391;SDS011;41667;51.922;8.850;2022-11-06T15:26:43;1.98;;;1.50;;
53391;SDS011;41667;51.922;8.850;2022-11-06T15:29:28;2.20;;;1.48;;
53391;SDS011;41667;51.922;8.850;2022-11-06T15:31:57;2.30;;;1.27;;
53391;SDS011;41667;51.922;8.850;2022-11-06T15:34:31;1.15;;;1.08;;
53391;SDS011;41667;51.922;8.850;2022-11-06T15:37:08;1.80;;;1.25;;
53391;SDS011;41667;51.922;8.850;2022-11-06T15:39:39;2.88;;;1.60;;
53391;SDS011;41667;51.922;8.850;2022-11-06T15:42:08;1.50;;;1.40;;
53391;SDS011;41667;51.922;8.850;2022-11-06T15:44:36;3.22;;;1.33;;
53391;SDS011;41667;51.922;8.850;2022-11-06T15:47:02;1.38;;;1.27;;
53391;SDS011;41667;51.922;8.850;2022-11-06T15:49:27;2.20;;;1.30;;
53391;SDS011;41667;51.922;8.850;2022-11-06T15:54:34;2.17;;;1.30;;
53391;SDS011;41667;51.922;8.850;2022-11-06T15:57:00;1.25;;;1.00;;
53391;SDS011;41667;51.922;8.850;2022-11-06T15:59:26;1.65;;;1.15;;
53391;SDS011;41667;51.922;8.850;2022-11-06T16:01:51;1.67;;;1.20;;
53391;SDS011;41667;51.922;8.850;2022-11-06T16:04:18;2.05;;;1.50;;
53391;SDS011;41667;51.922;8.850;2022-11-06T16:06:44;2.42;;;1.45;;
53391;SDS011;41667;51.922;8.850;2022-11-06T16:09:15;1.83;;;1.30;;
53391;SDS011;41667;51.922;8.850;2022-11-06T16:11:41;1.75;;;1.40;;
53391;SDS011;41667;51.922;8.850;2022-11-06T16:14:08;3.03;;;1.30;;
53391;SDS011;41667;51.922;8.850;2022-11-06T16:16:43;3.95;;;1.33;;
53391;SDS011;41667;51.922;8.850;2022-11-06T16:21:50;1.58;;;1.48;;
53391;SDS011;41667;51.922;8.850;2022-11-06T16:24:16;1.15;;;1.05;;
53391;SDS011;41667;51.922;8.850;2022-11-06T16:26:45;5.25;;;1.17;;
53391;SDS011;41667;51.922;8.850;2022-11-06T16:31:43;2.67;;;1.52;;
53391;SDS011;41667;51.922;8.850;2022-11-06T16:34:19;1.40;;;1.27;;
53391;SDS011;41667;51.922;8.850;2022-11-06T16:36:56;3.17;;;1.35;;
53391;SDS011;41667;51.922;8.850;2022-11-06T16:50:02;2.08;;;1.50;;
53391;SDS011;41667;51.922;8.850;2022-11-06T16:52:22;3.53;;;1.50;;
53391;SDS011;41667;51.922;8.850;2022-11-06T16:54:53;1.42;;;1.33;;
53391;SDS011;41667;51.922;8.850;2022-11-06T16:57:23;1.10;;;1.10;;
53391;SDS011;41667;51.922;8.850;2022-11-06T16:59:53;1.50;;;1.40;;
53391;SDS011;41667;51.922;8.850;2022-11-06T17:02:19;1.40;;;1.30;;
53391;SDS011;41667;51.922;8.850;2022-11-06T17:04:45;1.50;;;1.40;;
53391;SDS011;41667;51.922;8.850;2022-11-06T17:07:20;1.67;;;1.58;;
53391;SDS011;41667;51.922;8.850;2022-11-06T17:09:47;2.33;;;1.85;;